N21SM MDLR-TJSJ
Flight info
| Callsign | N21SM |
|---|---|
| Flight time | 0h 35m |
| Altitude | 23000 |
| Route | MELLA2M MELLA DCT JOSHE DCT SJU |
| Aircraft | SF50/L-SDGRWY/L |
Departure
| Time | 2026-04-26 02:06 |
|---|---|
| Airport | Casa De Campo International Airport (MDLR) |
Arrival
| Time | 2026-04-26 02:42 |
|---|---|
| Airport | Luis Munoz Marin International Airport (TJSJ) |
| Time | Latitude | Longitude | Altitude | Speed | Heading |
|---|---|---|---|---|---|
| 2026-04-26 02:06 | 18.31778 | -68.74163 | 12728 ft | 256 kts | 102° |
| 2026-04-26 02:06 | 18.31467 | -68.72282 | 13142 ft | 256 kts | 101° |
| 2026-04-26 02:07 | 18.31162 | -68.70430 | 13537 ft | 256 kts | 101° |
| 2026-04-26 02:07 | 18.30881 | -68.68572 | 13851 ft | 260 kts | 100° |
| 2026-04-26 02:07 | 18.30588 | -68.66686 | 14073 ft | 264 kts | 101° |
| 2026-04-26 02:07 | 18.30280 | -68.64765 | 14304 ft | 267 kts | 101° |
| 2026-04-26 02:08 | 18.29973 | -68.62859 | 14528 ft | 270 kts | 101° |
| 2026-04-26 02:08 | 18.29660 | -68.60900 | 14761 ft | 272 kts | 101° |
| 2026-04-26 02:08 | 18.29345 | -68.58926 | 14994 ft | 274 kts | 101° |
| 2026-04-26 02:08 | 18.29032 | -68.56938 | 15231 ft | 275 kts | 101° |
| 2026-04-26 02:09 | 18.28719 | -68.54948 | 15466 ft | 276 kts | 101° |
| 2026-04-26 02:09 | 18.28407 | -68.52948 | 15704 ft | 277 kts | 101° |
| 2026-04-26 02:09 | 18.28096 | -68.50946 | 15940 ft | 278 kts | 101° |
| 2026-04-26 02:09 | 18.27785 | -68.48933 | 16183 ft | 279 kts | 101° |
| 2026-04-26 02:10 | 18.27479 | -68.46918 | 16424 ft | 279 kts | 101° |
| 2026-04-26 02:10 | 18.27173 | -68.44899 | 16671 ft | 279 kts | 101° |
| 2026-04-26 02:10 | 18.26868 | -68.42874 | 16918 ft | 280 kts | 101° |
| 2026-04-26 02:10 | 18.26550 | -68.40859 | 17166 ft | 280 kts | 102° |
| 2026-04-26 02:11 | 18.26225 | -68.38863 | 17416 ft | 280 kts | 102° |
| 2026-04-26 02:11 | 18.25898 | -68.36838 | 17666 ft | 281 kts | 102° |
| 2026-04-26 02:11 | 18.25571 | -68.34816 | 17923 ft | 281 kts | 103° |
| 2026-04-26 02:11 | 18.25219 | -68.32796 | 18181 ft | 281 kts | 103° |
| 2026-04-26 02:12 | 18.24908 | -68.30765 | 18413 ft | 282 kts | 100° |
| 2026-04-26 02:12 | 18.24664 | -68.28721 | 18635 ft | 282 kts | 99° |
| 2026-04-26 02:12 | 18.24338 | -68.26693 | 18858 ft | 281 kts | 105° |
| 2026-04-26 02:12 | 18.23922 | -68.24683 | 19079 ft | 281 kts | 104° |
| 2026-04-26 02:13 | 18.23584 | -68.22652 | 19310 ft | 282 kts | 101° |
| 2026-04-26 02:13 | 18.23280 | -68.20612 | 19540 ft | 282 kts | 102° |
| 2026-04-26 02:13 | 18.22957 | -68.18582 | 19772 ft | 282 kts | 102° |
| 2026-04-26 02:13 | 18.22620 | -68.16552 | 20013 ft | 281 kts | 102° |
| 2026-04-26 02:14 | 18.22299 | -68.14570 | 20384 ft | 275 kts | 102° |
| 2026-04-26 02:14 | 18.21982 | -68.12603 | 20762 ft | 270 kts | 102° |
| 2026-04-26 02:14 | 18.21668 | -68.10667 | 21142 ft | 266 kts | 102° |
| 2026-04-26 02:14 | 18.21357 | -68.08760 | 21529 ft | 263 kts | 102° |
| 2026-04-26 02:15 | 18.21051 | -68.06879 | 21920 ft | 259 kts | 102° |
| 2026-04-26 02:15 | 18.20748 | -68.05017 | 22319 ft | 256 kts | 102° |
| 2026-04-26 02:15 | 18.20448 | -68.03177 | 22722 ft | 253 kts | 102° |
| 2026-04-26 02:15 | 18.20150 | -68.01349 | 22968 ft | 258 kts | 102° |
| 2026-04-26 02:16 | 18.19924 | -67.99424 | 22972 ft | 273 kts | 91° |
| 2026-04-26 02:16 | 18.20015 | -67.97385 | 22985 ft | 284 kts | 88° |
| 2026-04-26 02:16 | 18.20094 | -67.95303 | 22987 ft | 293 kts | 89° |
| 2026-04-26 02:16 | 18.20153 | -67.93130 | 22985 ft | 300 kts | 89° |
| 2026-04-26 02:17 | 18.20220 | -67.90916 | 22988 ft | 306 kts | 89° |
| 2026-04-26 02:17 | 18.20297 | -67.88665 | 22986 ft | 310 kts | 89° |
| 2026-04-26 02:17 | 18.20370 | -67.86386 | 22987 ft | 313 kts | 89° |
| 2026-04-26 02:17 | 18.20442 | -67.84084 | 22987 ft | 316 kts | 89° |
| 2026-04-26 02:18 | 18.20516 | -67.81768 | 22983 ft | 318 kts | 89° |
| 2026-04-26 02:18 | 18.20589 | -67.79435 | 22984 ft | 319 kts | 89° |
| 2026-04-26 02:18 | 18.20662 | -67.77101 | 22987 ft | 320 kts | 89° |
| 2026-04-26 02:18 | 18.20736 | -67.74752 | 22986 ft | 321 kts | 89° |
| 2026-04-26 02:19 | 18.20810 | -67.72403 | 22986 ft | 322 kts | 89° |
| 2026-04-26 02:19 | 18.20883 | -67.70054 | 22987 ft | 322 kts | 89° |
| 2026-04-26 02:19 | 18.20955 | -67.67699 | 22983 ft | 322 kts | 89° |
| 2026-04-26 02:19 | 18.21028 | -67.65339 | 22985 ft | 322 kts | 89° |
| 2026-04-26 02:20 | 18.21099 | -67.62983 | 22986 ft | 322 kts | 89° |
| 2026-04-26 02:20 | 18.21172 | -67.60625 | 22989 ft | 322 kts | 89° |
| 2026-04-26 02:20 | 18.21247 | -67.58298 | 22985 ft | 322 kts | 89° |
| 2026-04-26 02:20 | 18.21319 | -67.55942 | 22985 ft | 322 kts | 89° |
| 2026-04-26 02:21 | 18.21383 | -67.53585 | 22985 ft | 322 kts | 89° |
| 2026-04-26 02:21 | 18.21454 | -67.51228 | 22986 ft | 322 kts | 89° |
| 2026-04-26 02:21 | 18.21526 | -67.48876 | 22987 ft | 322 kts | 89° |
| 2026-04-26 02:21 | 18.21597 | -67.46520 | 22985 ft | 322 kts | 89° |
| 2026-04-26 02:22 | 18.21666 | -67.44166 | 22989 ft | 322 kts | 89° |
| 2026-04-26 02:22 | 18.21735 | -67.41808 | 22987 ft | 322 kts | 89° |
| 2026-04-26 02:22 | 18.21804 | -67.39457 | 22989 ft | 322 kts | 89° |
| 2026-04-26 02:22 | 18.21872 | -67.37106 | 22986 ft | 322 kts | 89° |
| 2026-04-26 02:23 | 18.21942 | -67.34754 | 22987 ft | 321 kts | 89° |
| 2026-04-26 02:23 | 18.22009 | -67.32409 | 22990 ft | 321 kts | 89° |
| 2026-04-26 02:23 | 18.22077 | -67.30052 | 22992 ft | 321 kts | 89° |
| 2026-04-26 02:23 | 18.22146 | -67.27681 | 22675 ft | 327 kts | 90° |
| 2026-04-26 02:24 | 18.22213 | -67.25308 | 22274 ft | 320 kts | 89° |
| 2026-04-26 02:24 | 18.22281 | -67.22998 | 21870 ft | 311 kts | 90° |
| 2026-04-26 02:24 | 18.22345 | -67.20774 | 21472 ft | 306 kts | 90° |
| 2026-04-26 02:24 | 18.22407 | -67.18539 | 21083 ft | 305 kts | 90° |
| 2026-04-26 02:25 | 18.22468 | -67.16310 | 20699 ft | 305 kts | 90° |
| 2026-04-26 02:25 | 18.22531 | -67.14073 | 20317 ft | 305 kts | 90° |
| 2026-04-26 02:25 | 18.22593 | -67.11847 | 19944 ft | 304 kts | 90° |
| 2026-04-26 02:25 | 18.22654 | -67.09626 | 19568 ft | 302 kts | 90° |
| 2026-04-26 02:26 | 18.22715 | -67.07422 | 19203 ft | 301 kts | 90° |
| 2026-04-26 02:26 | 18.22778 | -67.05230 | 18842 ft | 299 kts | 90° |
| 2026-04-26 02:26 | 18.22839 | -67.03045 | 18483 ft | 297 kts | 90° |
| 2026-04-26 02:26 | 18.22897 | -67.00879 | 18100 ft | 296 kts | 90° |
| 2026-04-26 02:27 | 18.22955 | -66.98723 | 17695 ft | 293 kts | 90° |
| 2026-04-26 02:27 | 18.23014 | -66.96592 | 17331 ft | 290 kts | 90° |
| 2026-04-26 02:27 | 18.23071 | -66.94474 | 16977 ft | 288 kts | 90° |
| 2026-04-26 02:27 | 18.23126 | -66.92374 | 16637 ft | 286 kts | 90° |
| 2026-04-26 02:28 | 18.23181 | -66.90287 | 16293 ft | 285 kts | 90° |
| 2026-04-26 02:28 | 18.23238 | -66.88206 | 15957 ft | 283 kts | 90° |
| 2026-04-26 02:28 | 18.23292 | -66.86167 | 15627 ft | 281 kts | 90° |
| 2026-04-26 02:28 | 18.23346 | -66.84118 | 15299 ft | 279 kts | 90° |
| 2026-04-26 02:29 | 18.23401 | -66.82094 | 15160 ft | 275 kts | 90° |
| 2026-04-26 02:29 | 18.23453 | -66.80084 | 15112 ft | 274 kts | 90° |
| 2026-04-26 02:29 | 18.23503 | -66.78066 | 15025 ft | 278 kts | 90° |
| 2026-04-26 02:29 | 18.23557 | -66.76021 | 14720 ft | 279 kts | 90° |
| 2026-04-26 02:30 | 18.23611 | -66.73997 | 14364 ft | 275 kts | 90° |
| 2026-04-26 02:30 | 18.23663 | -66.71996 | 14011 ft | 272 kts | 90° |
| 2026-04-26 02:30 | 18.23712 | -66.70015 | 13634 ft | 270 kts | 90° |
| 2026-04-26 02:30 | 18.23746 | -66.68715 | 13387 ft | 268 kts | 89° |
| 2026-04-26 02:31 | 18.23797 | -66.66760 | 13029 ft | 266 kts | 89° |
| 2026-04-26 02:31 | 18.23845 | -66.64820 | 12682 ft | 265 kts | 89° |
| 2026-04-26 02:31 | 18.23893 | -66.62883 | 12331 ft | 264 kts | 89° |
| 2026-04-26 02:31 | 18.23942 | -66.60960 | 11982 ft | 262 kts | 89° |
| 2026-04-26 02:32 | 18.23985 | -66.59240 | 11674 ft | 261 kts | 89° |
| 2026-04-26 02:32 | 18.24020 | -66.57831 | 11420 ft | 259 kts | 89° |
| 2026-04-26 02:32 | 18.24067 | -66.55944 | 11079 ft | 258 kts | 89° |
| 2026-04-26 02:32 | 18.24114 | -66.54066 | 10741 ft | 256 kts | 89° |
| 2026-04-26 02:33 | 18.24161 | -66.52194 | 10407 ft | 254 kts | 88° |
| 2026-04-26 02:33 | 18.24372 | -66.50357 | 10066 ft | 253 kts | 73° |
| 2026-04-26 02:33 | 18.25087 | -66.48686 | 9707 ft | 249 kts | 56° |
| 2026-04-26 02:33 | 18.26047 | -66.47207 | 9352 ft | 247 kts | 54° |
| 2026-04-26 02:34 | 18.27005 | -66.45713 | 8998 ft | 245 kts | 55° |
| 2026-04-26 02:34 | 18.27944 | -66.44224 | 8647 ft | 243 kts | 55° |
| 2026-04-26 02:34 | 18.28879 | -66.42748 | 8285 ft | 241 kts | 55° |
| 2026-04-26 02:34 | 18.29807 | -66.41288 | 7933 ft | 239 kts | 55° |
| 2026-04-26 02:35 | 18.30730 | -66.39836 | 7589 ft | 238 kts | 55° |
| 2026-04-26 02:35 | 18.31646 | -66.38394 | 7260 ft | 236 kts | 55° |
| 2026-04-26 02:35 | 18.32553 | -66.36966 | 6925 ft | 234 kts | 56° |
| 2026-04-26 02:35 | 18.33454 | -66.35546 | 6603 ft | 233 kts | 56° |
| 2026-04-26 02:36 | 18.34348 | -66.34134 | 6283 ft | 231 kts | 56° |
| 2026-04-26 02:36 | 18.35237 | -66.32731 | 5953 ft | 230 kts | 56° |
| 2026-04-26 02:36 | 18.36125 | -66.31334 | 5612 ft | 229 kts | 56° |
| 2026-04-26 02:36 | 18.36995 | -66.29970 | 5296 ft | 227 kts | 56° |
| 2026-04-26 02:37 | 18.37873 | -66.28592 | 5009 ft | 225 kts | 56° |
| 2026-04-26 02:37 | 18.38741 | -66.27227 | 4997 ft | 223 kts | 56° |
| 2026-04-26 02:37 | 18.39610 | -66.25857 | 4870 ft | 226 kts | 57° |
| 2026-04-26 02:37 | 18.40484 | -66.24481 | 4440 ft | 224 kts | 56° |
| 2026-04-26 02:38 | 18.41326 | -66.23158 | 3739 ft | 211 kts | 56° |
| 2026-04-26 02:38 | 18.42123 | -66.21906 | 3039 ft | 202 kts | 56° |
| 2026-04-26 02:38 | 18.42893 | -66.20695 | 2346 ft | 196 kts | 56° |
| 2026-04-26 02:38 | 18.43639 | -66.19507 | 1639 ft | 192 kts | 59° |
| 2026-04-26 02:39 | 18.43837 | -66.18236 | 1480 ft | 171 kts | 101° |
| 2026-04-26 02:39 | 18.43456 | -66.17097 | 1473 ft | 172 kts | 105° |
| 2026-04-26 02:39 | 18.43312 | -66.15664 | 1506 ft | 220 kts | 90° |
| 2026-04-26 02:39 | 18.43345 | -66.13937 | 1499 ft | 247 kts | 88° |
| 2026-04-26 02:40 | 18.43311 | -66.12104 | 1444 ft | 254 kts | 94° |
| 2026-04-26 02:40 | 18.43160 | -66.10280 | 1471 ft | 254 kts | 92° |
| 2026-04-26 02:40 | 18.43058 | -66.08437 | 1518 ft | 243 kts | 94° |
| 2026-04-26 02:40 | 18.43105 | -66.06759 | 1039 ft | 214 kts | 83° |
| 2026-04-26 02:41 | 18.43318 | -66.05287 | 790 ft | 190 kts | 82° |
| 2026-04-26 02:41 | 18.43364 | -66.04069 | 538 ft | 148 kts | 92° |
| 2026-04-26 02:41 | 18.43361 | -66.03113 | 308 ft | 125 kts | 89° |
| 2026-04-26 02:41 | 18.43359 | -66.02223 | 165 ft | 120 kts | 90° |
| 2026-04-26 02:42 | 18.43357 | -66.01378 | 26 ft | 104 kts | 89° |
| 2026-04-26 02:42 | 18.43357 | -66.00726 | -43 ft | 76 kts | 90° |
| 2026-04-26 02:42 | 18.43365 | -66.00304 | -47 ft | 34 kts | 66° |
| 2026-04-26 02:42 | 18.43450 | -66.00227 | -40 ft | 13 kts | 359° |
| 2026-04-26 02:43 | 18.43561 | -66.00182 | -33 ft | 11 kts | 90° |
| 2026-04-26 02:43 | 18.43560 | -66.00090 | -33 ft | 12 kts | 90° |
| 2026-04-26 02:43 | 18.43576 | -66.00016 | -44 ft | 13 kts | 40° |
| 2026-04-26 02:44 | 18.43662 | -65.99993 | -32 ft | 16 kts | 359° |
| 2026-04-26 02:44 | 18.43727 | -65.99997 | -38 ft | 7 kts | 342° |
| 2026-04-26 02:44 | 18.43815 | -66.00037 | -32 ft | 14 kts | 337° |
| 2026-04-26 02:44 | 18.43893 | -66.00071 | -32 ft | 10 kts | 338° |
| 2026-04-26 02:45 | 18.43951 | -66.00059 | -46 ft | 8 kts | 25° |
| 2026-04-26 02:45 | 18.43988 | -66.00032 | -31 ft | 7 kts | 44° |
| 2026-04-26 02:45 | 18.43995 | -66.00032 | -39 ft | 0 kts | 248° |